sensor_id;sensor_type;location;lat;lon;timestamp;P1;durP1;ratioP1;P2;durP2;ratioP2
39426;SDS011;25938;48.470;1.486;2022-10-16T00:01:36;1.00;;;0.10;;
39426;SDS011;25938;48.470;1.486;2022-10-16T00:04:03;0.40;;;0.00;;
39426;SDS011;25938;48.470;1.486;2022-10-16T00:06:29;0.98;;;0.30;;
39426;SDS011;25938;48.470;1.486;2022-10-16T00:08:55;0.57;;;0.20;;
39426;SDS011;25938;48.470;1.486;2022-10-16T00:11:22;0.45;;;0.10;;
39426;SDS011;25938;48.470;1.486;2022-10-16T00:13:50;0.88;;;0.10;;
39426;SDS011;25938;48.470;1.486;2022-10-16T00:16:19;1.05;;;0.10;;
39426;SDS011;25938;48.470;1.486;2022-10-16T00:18:44;0.82;;;0.10;;
39426;SDS011;25938;48.470;1.486;2022-10-16T00:21:11;1.00;;;0.08;;
39426;SDS011;25938;48.470;1.486;2022-10-16T00:23:39;0.20;;;0.10;;
39426;SDS011;25938;48.470;1.486;2022-10-16T00:26:06;0.20;;;0.00;;
39426;SDS011;25938;48.470;1.486;2022-10-16T00:28:37;0.25;;;0.10;;
39426;SDS011;25938;48.470;1.486;2022-10-16T00:31:04;1.20;;;0.05;;
39426;SDS011;25938;48.470;1.486;2022-10-16T00:33:31;2.20;;;0.10;;
39426;SDS011;25938;48.470;1.486;2022-10-16T00:35:58;1.45;;;0.20;;
39426;SDS011;25938;48.470;1.486;2022-10-16T00:38:24;1.17;;;0.13;;
39426;SDS011;25938;48.470;1.486;2022-10-16T00:40:50;0.95;;;0.00;;
39426;SDS011;25938;48.470;1.486;2022-10-16T00:43:39;0.63;;;0.10;;
39426;SDS011;25938;48.470;1.486;2022-10-16T00:46:17;0.30;;;0.30;;
39426;SDS011;25938;48.470;1.486;2022-10-16T00:51:25;1.13;;;0.10;;
39426;SDS011;25938;48.470;1.486;2022-10-16T00:53:56;0.20;;;0.00;;
39426;SDS011;25938;48.470;1.486;2022-10-16T00:56:22;0.43;;;0.10;;
39426;SDS011;25938;48.470;1.486;2022-10-16T00:58:47;1.75;;;1.45;;
39426;SDS011;25938;48.470;1.486;2022-10-16T01:01:13;0.30;;;0.20;;
39426;SDS011;25938;48.470;1.486;2022-10-16T01:03:39;0.80;;;0.20;;
39426;SDS011;25938;48.470;1.486;2022-10-16T01:11:26;0.20;;;0.10;;
39426;SDS011;25938;48.470;1.486;2022-10-16T01:14:06;0.73;;;0.20;;
39426;SDS011;25938;48.470;1.486;2022-10-16T01:17:04;0.30;;;0.00;;
39426;SDS011;25938;48.470;1.486;2022-10-16T01:19:54;0.30;;;0.10;;
39426;SDS011;25938;48.470;1.486;2022-10-16T01:22:29;1.65;;;0.38;;
39426;SDS011;25938;48.470;1.486;2022-10-16T01:25:04;0.95;;;0.10;;
39426;SDS011;25938;48.470;1.486;2022-10-16T01:27:34;1.00;;;0.10;;
39426;SDS011;25938;48.470;1.486;2022-10-16T01:30:07;0.68;;;0.10;;
39426;SDS011;25938;48.470;1.486;2022-10-16T01:32:42;0.20;;;0.10;;
39426;SDS011;25938;48.470;1.486;2022-10-16T01:35:18;1.45;;;0.70;;
39426;SDS011;25938;48.470;1.486;2022-10-16T01:37:53;0.93;;;0.00;;
39426;SDS011;25938;48.470;1.486;2022-10-16T01:40:28;1.50;;;0.10;;
39426;SDS011;25938;48.470;1.486;2022-10-16T01:43:08;1.98;;;0.10;;
39426;SDS011;25938;48.470;1.486;2022-10-16T01:45:44;0.45;;;0.00;;
39426;SDS011;25938;48.470;1.486;2022-10-16T01:48:11;0.32;;;0.00;;
39426;SDS011;25938;48.470;1.486;2022-10-16T01:50:40;1.27;;;0.00;;
39426;SDS011;25938;48.470;1.486;2022-10-16T01:53:08;1.42;;;0.00;;
39426;SDS011;25938;48.470;1.486;2022-10-16T01:55:39;0.60;;;0.00;;
39426;SDS011;25938;48.470;1.486;2022-10-16T01:58:10;0.52;;;0.10;;
39426;SDS011;25938;48.470;1.486;2022-10-16T02:00:38;0.90;;;0.10;;
39426;SDS011;25938;48.470;1.486;2022-10-16T02:03:06;0.52;;;0.00;;
39426;SDS011;25938;48.470;1.486;2022-10-16T02:05:38;0.35;;;0.15;;
39426;SDS011;25938;48.470;1.486;2022-10-16T02:08:07;0.17;;;0.10;;
39426;SDS011;25938;48.470;1.486;2022-10-16T02:10:34;0.85;;;0.10;;
39426;SDS011;25938;48.470;1.486;2022-10-16T02:13:03;0.75;;;0.30;;
39426;SDS011;25938;48.470;1.486;2022-10-16T02:15:35;0.55;;;0.10;;
39426;SDS011;25938;48.470;1.486;2022-10-16T02:18:02;0.80;;;0.00;;
39426;SDS011;25938;48.470;1.486;2022-10-16T02:20:30;1.40;;;0.00;;
39426;SDS011;25938;48.470;1.486;2022-10-16T02:23:12;0.40;;;0.10;;
39426;SDS011;25938;48.470;1.486;2022-10-16T02:25:41;0.63;;;0.00;;
39426;SDS011;25938;48.470;1.486;2022-10-16T02:28:24;1.75;;;0.10;;
39426;SDS011;25938;48.470;1.486;2022-10-16T02:30:57;1.35;;;0.35;;
39426;SDS011;25938;48.470;1.486;2022-10-16T02:33:26;0.22;;;0.22;;
39426;SDS011;25938;48.470;1.486;2022-10-16T02:35:54;1.35;;;0.00;;
39426;SDS011;25938;48.470;1.486;2022-10-16T02:38:20;1.00;;;0.10;;
39426;SDS011;25938;48.470;1.486;2022-10-16T02:40:47;0.95;;;0.10;;
39426;SDS011;25938;48.470;1.486;2022-10-16T02:43:13;0.10;;;0.00;;
39426;SDS011;25938;48.470;1.486;2022-10-16T02:45:40;0.40;;;0.10;;
39426;SDS011;25938;48.470;1.486;2022-10-16T02:48:06;2.13;;;0.10;;
39426;SDS011;25938;48.470;1.486;2022-10-16T02:50:31;0.73;;;0.00;;
39426;SDS011;25938;48.470;1.486;2022-10-16T02:52:57;0.20;;;0.00;;
39426;SDS011;25938;48.470;1.486;2022-10-16T02:55:22;1.38;;;0.20;;
39426;SDS011;25938;48.470;1.486;2022-10-16T02:57:48;0.50;;;0.10;;
39426;SDS011;25938;48.470;1.486;2022-10-16T03:00:14;1.23;;;0.08;;
39426;SDS011;25938;48.470;1.486;2022-10-16T03:02:41;1.08;;;0.10;;
39426;SDS011;25938;48.470;1.486;2022-10-16T03:05:07;0.17;;;0.10;;
39426;SDS011;25938;48.470;1.486;2022-10-16T03:07:34;0.32;;;0.10;;
39426;SDS011;25938;48.470;1.486;2022-10-16T03:09:59;0.47;;;0.08;;
39426;SDS011;25938;48.470;1.486;2022-10-16T03:12:26;1.70;;;0.05;;
39426;SDS011;25938;48.470;1.486;2022-10-16T03:14:52;0.25;;;0.10;;
39426;SDS011;25938;48.470;1.486;2022-10-16T03:17:18;1.15;;;0.10;;
39426;SDS011;25938;48.470;1.486;2022-10-16T03:19:43;0.10;;;0.10;;
39426;SDS011;25938;48.470;1.486;2022-10-16T03:22:09;0.32;;;0.17;;
39426;SDS011;25938;48.470;1.486;2022-10-16T03:24:35;0.28;;;0.00;;
39426;SDS011;25938;48.470;1.486;2022-10-16T03:27:00;0.85;;;0.10;;
39426;SDS011;25938;48.470;1.486;2022-10-16T03:29:27;0.22;;;0.03;;
39426;SDS011;25938;48.470;1.486;2022-10-16T03:31:54;0.52;;;0.10;;
39426;SDS011;25938;48.470;1.486;2022-10-16T03:34:20;0.10;;;0.00;;
39426;SDS011;25938;48.470;1.486;2022-10-16T03:36:46;0.05;;;0.00;;
39426;SDS011;25938;48.470;1.486;2022-10-16T03:39:11;0.10;;;0.10;;
39426;SDS011;25938;48.470;1.486;2022-10-16T03:41:37;1.05;;;0.20;;
39426;SDS011;25938;48.470;1.486;2022-10-16T03:44:02;0.10;;;0.10;;
39426;SDS011;25938;48.470;1.486;2022-10-16T03:46:28;0.75;;;0.00;;
39426;SDS011;25938;48.470;1.486;2022-10-16T03:48:54;0.22;;;0.10;;
39426;SDS011;25938;48.470;1.486;2022-10-16T03:51:20;0.10;;;0.00;;
39426;SDS011;25938;48.470;1.486;2022-10-16T03:53:46;0.10;;;0.10;;
39426;SDS011;25938;48.470;1.486;2022-10-16T03:56:11;0.15;;;0.05;;
39426;SDS011;25938;48.470;1.486;2022-10-16T03:58:37;0.15;;;0.00;;
39426;SDS011;25938;48.470;1.486;2022-10-16T04:01:02;0.40;;;0.30;;
39426;SDS011;25938;48.470;1.486;2022-10-16T04:03:28;0.85;;;0.10;;
39426;SDS011;25938;48.470;1.486;2022-10-16T04:05:54;0.10;;;0.00;;
39426;SDS011;25938;48.470;1.486;2022-10-16T04:08:19;0.15;;;0.00;;
39426;SDS011;25938;48.470;1.486;2022-10-16T04:10:45;0.35;;;0.10;;
39426;SDS011;25938;48.470;1.486;2022-10-16T04:13:11;0.00;;;0.00;;
39426;SDS011;25938;48.470;1.486;2022-10-16T04:15:37;1.23;;;0.00;;
39426;SDS011;25938;48.470;1.486;2022-10-16T04:18:03;0.77;;;0.03;;
39426;SDS011;25938;48.470;1.486;2022-10-16T04:20:29;0.10;;;0.00;;
39426;SDS011;25938;48.470;1.486;2022-10-16T04:22:55;1.13;;;0.03;;
39426;SDS011;25938;48.470;1.486;2022-10-16T04:25:21;0.10;;;0.00;;
39426;SDS011;25938;48.470;1.486;2022-10-16T04:27:47;1.55;;;0.10;;
39426;SDS011;25938;48.470;1.486;2022-10-16T04:30:12;0.35;;;0.08;;
39426;SDS011;25938;48.470;1.486;2022-10-16T04:32:38;1.67;;;0.13;;
39426;SDS011;25938;48.470;1.486;2022-10-16T04:35:05;0.00;;;0.00;;
39426;SDS011;25938;48.470;1.486;2022-10-16T04:37:31;0.57;;;0.00;;
39426;SDS011;25938;48.470;1.486;2022-10-16T04:39:56;0.57;;;0.40;;
39426;SDS011;25938;48.470;1.486;2022-10-16T04:42:22;0.65;;;0.10;;
39426;SDS011;25938;48.470;1.486;2022-10-16T04:44:47;0.55;;;0.10;;
39426;SDS011;25938;48.470;1.486;2022-10-16T04:47:13;0.15;;;0.00;;
39426;SDS011;25938;48.470;1.486;2022-10-16T04:49:39;0.43;;;0.13;;
39426;SDS011;25938;48.470;1.486;2022-10-16T04:52:05;1.15;;;0.10;;
39426;SDS011;25938;48.470;1.486;2022-10-16T04:54:30;4.00;;;1.15;;
39426;SDS011;25938;48.470;1.486;2022-10-16T04:56:56;0.30;;;0.10;;
39426;SDS011;25938;48.470;1.486;2022-10-16T04:59:22;0.22;;;0.00;;
39426;SDS011;25938;48.470;1.486;2022-10-16T05:01:48;0.50;;;0.10;;
39426;SDS011;25938;48.470;1.486;2022-10-16T05:04:14;0.10;;;0.05;;
39426;SDS011;25938;48.470;1.486;2022-10-16T05:06:40;0.10;;;0.00;;
39426;SDS011;25938;48.470;1.486;2022-10-16T05:09:06;4.03;;;0.30;;
39426;SDS011;25938;48.470;1.486;2022-10-16T05:11:32;0.20;;;0.00;;
39426;SDS011;25938;48.470;1.486;2022-10-16T05:13:59;1.00;;;0.10;;
39426;SDS011;25938;48.470;1.486;2022-10-16T05:16:24;0.20;;;0.00;;
39426;SDS011;25938;48.470;1.486;2022-10-16T05:18:51;0.08;;;0.00;;
39426;SDS011;25938;48.470;1.486;2022-10-16T05:21:17;0.30;;;0.10;;
39426;SDS011;25938;48.470;1.486;2022-10-16T05:23:43;0.17;;;0.10;;
39426;SDS011;25938;48.470;1.486;2022-10-16T05:26:09;0.57;;;0.13;;
39426;SDS011;25938;48.470;1.486;2022-10-16T05:28:35;1.65;;;0.20;;
39426;SDS011;25938;48.470;1.486;2022-10-16T05:31:07;0.10;;;0.00;;
39426;SDS011;25938;48.470;1.486;2022-10-16T05:33:34;0.30;;;0.10;;
39426;SDS011;25938;48.470;1.486;2022-10-16T05:36:04;1.63;;;0.20;;
39426;SDS011;25938;48.470;1.486;2022-10-16T05:38:32;0.05;;;0.00;;
39426;SDS011;25938;48.470;1.486;2022-10-16T05:40:59;3.10;;;0.10;;
39426;SDS011;25938;48.470;1.486;2022-10-16T05:43:24;0.20;;;0.10;;
39426;SDS011;25938;48.470;1.486;2022-10-16T05:45:55;0.30;;;0.10;;
39426;SDS011;25938;48.470;1.486;2022-10-16T05:48:22;1.23;;;0.20;;
39426;SDS011;25938;48.470;1.486;2022-10-16T05:50:48;0.73;;;0.10;;
39426;SDS011;25938;48.470;1.486;2022-10-16T05:53:20;0.77;;;0.27;;
39426;SDS011;25938;48.470;1.486;2022-10-16T05:55:53;1.40;;;0.30;;
39426;SDS011;25938;48.470;1.486;2022-10-16T05:58:19;0.50;;;0.20;;
39426;SDS011;25938;48.470;1.486;2022-10-16T06:00:52;0.30;;;0.30;;
39426;SDS011;25938;48.470;1.486;2022-10-16T06:05:44;0.20;;;0.10;;
39426;SDS011;25938;48.470;1.486;2022-10-16T06:08:10;1.48;;;0.50;;
39426;SDS011;25938;48.470;1.486;2022-10-16T06:10:35;2.55;;;1.80;;
39426;SDS011;25938;48.470;1.486;2022-10-16T06:13:01;2.05;;;0.30;;
39426;SDS011;25938;48.470;1.486;2022-10-16T06:15:26;1.08;;;0.20;;
39426;SDS011;25938;48.470;1.486;2022-10-16T06:17:52;2.28;;;0.10;;
39426;SDS011;25938;48.470;1.486;2022-10-16T06:20:17;0.10;;;0.00;;
39426;SDS011;25938;48.470;1.486;2022-10-16T06:22:43;0.95;;;0.32;;
39426;SDS011;25938;48.470;1.486;2022-10-16T06:25:09;0.28;;;0.10;;
39426;SDS011;25938;48.470;1.486;2022-10-16T06:27:34;1.23;;;1.10;;
39426;SDS011;25938;48.470;1.486;2022-10-16T06:30:00;0.57;;;0.30;;
39426;SDS011;25938;48.470;1.486;2022-10-16T06:32:26;0.65;;;0.30;;
39426;SDS011;25938;48.470;1.486;2022-10-16T06:34:52;0.70;;;0.43;;
39426;SDS011;25938;48.470;1.486;2022-10-16T06:37:18;0.70;;;0.28;;
39426;SDS011;25938;48.470;1.486;2022-10-16T06:39:43;2.30;;;0.35;;
39426;SDS011;25938;48.470;1.486;2022-10-16T06:42:09;0.80;;;0.45;;
39426;SDS011;25938;48.470;1.486;2022-10-16T06:44:34;0.85;;;0.30;;
39426;SDS011;25938;48.470;1.486;2022-10-16T06:47:00;0.63;;;0.40;;
39426;SDS011;25938;48.470;1.486;2022-10-16T06:49:26;1.25;;;0.32;;
39426;SDS011;25938;48.470;1.486;2022-10-16T06:51:53;0.40;;;0.30;;
39426;SDS011;25938;48.470;1.486;2022-10-16T06:54:19;0.55;;;0.30;;
39426;SDS011;25938;48.470;1.486;2022-10-16T06:56:44;0.60;;;0.20;;
39426;SDS011;25938;48.470;1.486;2022-10-16T06:59:10;1.10;;;0.20;;
39426;SDS011;25938;48.470;1.486;2022-10-16T07:01:35;0.65;;;0.20;;
39426;SDS011;25938;48.470;1.486;2022-10-16T07:04:01;1.40;;;0.40;;
39426;SDS011;25938;48.470;1.486;2022-10-16T07:06:30;2.47;;;2.38;;
39426;SDS011;25938;48.470;1.486;2022-10-16T07:08:57;0.60;;;0.40;;
39426;SDS011;25938;48.470;1.486;2022-10-16T07:11:23;0.40;;;0.30;;
39426;SDS011;25938;48.470;1.486;2022-10-16T07:13:49;1.73;;;0.70;;
39426;SDS011;25938;48.470;1.486;2022-10-16T07:16:19;1.30;;;0.52;;
39426;SDS011;25938;48.470;1.486;2022-10-16T07:18:47;0.70;;;0.40;;
39426;SDS011;25938;48.470;1.486;2022-10-16T07:21:18;0.98;;;0.17;;
39426;SDS011;25938;48.470;1.486;2022-10-16T07:23:45;0.25;;;0.25;;
39426;SDS011;25938;48.470;1.486;2022-10-16T07:26:24;0.98;;;0.20;;
39426;SDS011;25938;48.470;1.486;2022-10-16T07:28:51;0.30;;;0.10;;
39426;SDS011;25938;48.470;1.486;2022-10-16T07:31:18;0.35;;;0.30;;
39426;SDS011;25938;48.470;1.486;2022-10-16T07:33:45;6.00;;;5.60;;
39426;SDS011;25938;48.470;1.486;2022-10-16T07:36:12;1.30;;;1.17;;
39426;SDS011;25938;48.470;1.486;2022-10-16T07:38:39;0.60;;;0.60;;
39426;SDS011;25938;48.470;1.486;2022-10-16T07:41:07;2.53;;;0.35;;
39426;SDS011;25938;48.470;1.486;2022-10-16T07:43:35;2.10;;;0.43;;
39426;SDS011;25938;48.470;1.486;2022-10-16T07:46:01;0.35;;;0.35;;
39426;SDS011;25938;48.470;1.486;2022-10-16T07:48:28;0.95;;;0.30;;
39426;SDS011;25938;48.470;1.486;2022-10-16T07:50:59;0.22;;;0.22;;
39426;SDS011;25938;48.470;1.486;2022-10-16T07:53:26;2.38;;;1.35;;
39426;SDS011;25938;48.470;1.486;2022-10-16T07:55:52;4.50;;;4.22;;
39426;SDS011;25938;48.470;1.486;2022-10-16T07:58:22;0.95;;;0.40;;
39426;SDS011;25938;48.470;1.486;2022-10-16T08:00:48;1.25;;;1.13;;
39426;SDS011;25938;48.470;1.486;2022-10-16T08:03:13;5.05;;;4.75;;
39426;SDS011;25938;48.470;1.486;2022-10-16T08:05:39;2.40;;;1.27;;
39426;SDS011;25938;48.470;1.486;2022-10-16T08:08:05;1.55;;;0.40;;
39426;SDS011;25938;48.470;1.486;2022-10-16T08:10:30;0.40;;;0.35;;
39426;SDS011;25938;48.470;1.486;2022-10-16T08:12:57;0.40;;;0.30;;
39426;SDS011;25938;48.470;1.486;2022-10-16T08:15:23;1.27;;;0.57;;
39426;SDS011;25938;48.470;1.486;2022-10-16T08:17:59;0.82;;;0.40;;
39426;SDS011;25938;48.470;1.486;2022-10-16T08:20:26;1.83;;;0.50;;
39426;SDS011;25938;48.470;1.486;2022-10-16T08:22:52;0.82;;;0.30;;
39426;SDS011;25938;48.470;1.486;2022-10-16T08:25:19;0.40;;;0.30;;
39426;SDS011;25938;48.470;1.486;2022-10-16T08:27:45;1.20;;;0.20;;
39426;SDS011;25938;48.470;1.486;2022-10-16T08:30:11;0.28;;;0.10;;
39426;SDS011;25938;48.470;1.486;2022-10-16T08:32:36;2.65;;;0.20;;
39426;SDS011;25938;48.470;1.486;2022-10-16T08:35:02;1.58;;;0.30;;
39426;SDS011;25938;48.470;1.486;2022-10-16T08:37:31;0.20;;;0.10;;
39426;SDS011;25938;48.470;1.486;2022-10-16T08:39:57;0.55;;;0.20;;
39426;SDS011;25938;48.470;1.486;2022-10-16T08:45:19;0.10;;;0.10;;
39426;SDS011;25938;48.470;1.486;2022-10-16T08:48:08;1.23;;;0.13;;
39426;SDS011;25938;48.470;1.486;2022-10-16T08:50:42;1.10;;;0.10;;
39426;SDS011;25938;48.470;1.486;2022-10-16T08:53:18;0.20;;;0.13;;
39426;SDS011;25938;48.470;1.486;2022-10-16T08:55:52;0.05;;;0.00;;
39426;SDS011;25938;48.470;1.486;2022-10-16T09:01:11;0.32;;;0.10;;
39426;SDS011;25938;48.470;1.486;2022-10-16T09:12:19;1.00;;;0.10;;
39426;SDS011;25938;48.470;1.486;2022-10-16T09:17:59;0.30;;;0.00;;
39426;SDS011;25938;48.470;1.486;2022-10-16T09:23:27;1.35;;;0.00;;
39426;SDS011;25938;48.470;1.486;2022-10-16T09:25:59;2.00;;;0.00;;
39426;SDS011;25938;48.470;1.486;2022-10-16T09:28:25;1.63;;;0.10;;
39426;SDS011;25938;48.470;1.486;2022-10-16T09:30:50;0.63;;;0.10;;
39426;SDS011;25938;48.470;1.486;2022-10-16T09:33:17;0.95;;;0.10;;
39426;SDS011;25938;48.470;1.486;2022-10-16T09:35:49;0.50;;;0.00;;
39426;SDS011;25938;48.470;1.486;2022-10-16T09:38:27;1.20;;;0.38;;
39426;SDS011;25938;48.470;1.486;2022-10-16T09:40:54;1.65;;;0.15;;
39426;SDS011;25938;48.470;1.486;2022-10-16T09:46:25;0.20;;;0.08;;
39426;SDS011;25938;48.470;1.486;2022-10-16T09:48:57;0.73;;;0.10;;
39426;SDS011;25938;48.470;1.486;2022-10-16T09:51:28;0.10;;;0.00;;
39426;SDS011;25938;48.470;1.486;2022-10-16T09:54:00;0.15;;;0.00;;
39426;SDS011;25938;48.470;1.486;2022-10-16T09:56:32;0.20;;;0.10;;
39426;SDS011;25938;48.470;1.486;2022-10-16T09:59:14;0.20;;;0.10;;
39426;SDS011;25938;48.470;1.486;2022-10-16T10:04:09;0.90;;;0.20;;
39426;SDS011;25938;48.470;1.486;2022-10-16T10:06:45;1.52;;;0.10;;
39426;SDS011;25938;48.470;1.486;2022-10-16T10:11:49;0.15;;;0.10;;
39426;SDS011;25938;48.470;1.486;2022-10-16T10:14:22;1.05;;;0.10;;
39426;SDS011;25938;48.470;1.486;2022-10-16T10:16:49;0.30;;;0.10;;
39426;SDS011;25938;48.470;1.486;2022-10-16T10:19:20;0.55;;;0.00;;
39426;SDS011;25938;48.470;1.486;2022-10-16T10:21:48;1.95;;;0.30;;
39426;SDS011;25938;48.470;1.486;2022-10-16T10:24:15;0.32;;;0.25;;
39426;SDS011;25938;48.470;1.486;2022-10-16T10:26:54;0.40;;;0.20;;
39426;SDS011;25938;48.470;1.486;2022-10-16T10:34:42;0.90;;;0.00;;
39426;SDS011;25938;48.470;1.486;2022-10-16T10:42:51;0.73;;;0.40;;
39426;SDS011;25938;48.470;1.486;2022-10-16T10:45:27;0.55;;;0.52;;
39426;SDS011;25938;48.470;1.486;2022-10-16T10:53:24;0.10;;;0.00;;
39426;SDS011;25938;48.470;1.486;2022-10-16T10:59:07;0.10;;;0.00;;
39426;SDS011;25938;48.470;1.486;2022-10-16T11:02:18;0.10;;;0.00;;
39426;SDS011;25938;48.470;1.486;2022-10-16T11:08:15;0.35;;;0.00;;
39426;SDS011;25938;48.470;1.486;2022-10-16T11:10:46;0.77;;;0.30;;
39426;SDS011;25938;48.470;1.486;2022-10-16T11:16:11;0.47;;;0.25;;
39426;SDS011;25938;48.470;1.486;2022-10-16T11:21:51;0.73;;;0.20;;
39426;SDS011;25938;48.470;1.486;2022-10-16T11:27:17;0.25;;;0.10;;
39426;SDS011;25938;48.470;1.486;2022-10-16T11:29:58;0.85;;;0.30;;
39426;SDS011;25938;48.470;1.486;2022-10-16T11:32:47;1.45;;;0.10;;
39426;SDS011;25938;48.470;1.486;2022-10-16T11:35:23;0.03;;;0.00;;
39426;SDS011;25938;48.470;1.486;2022-10-16T11:37:56;1.70;;;0.10;;
39426;SDS011;25938;48.470;1.486;2022-10-16T11:40:28;0.45;;;0.10;;
39426;SDS011;25938;48.470;1.486;2022-10-16T11:43:01;0.10;;;0.00;;
39426;SDS011;25938;48.470;1.486;2022-10-16T11:48:25;0.10;;;0.00;;
39426;SDS011;25938;48.470;1.486;2022-10-16T11:51:05;0.10;;;0.00;;
39426;SDS011;25938;48.470;1.486;2022-10-16T11:56:55;0.10;;;0.10;;
39426;SDS011;25938;48.470;1.486;2022-10-16T11:59:35;0.82;;;0.82;;
39426;SDS011;25938;48.470;1.486;2022-10-16T12:05:01;0.10;;;0.00;;
39426;SDS011;25938;48.470;1.486;2022-10-16T12:07:35;0.10;;;0.10;;
39426;SDS011;25938;48.470;1.486;2022-10-16T12:10:18;1.00;;;0.20;;
39426;SDS011;25938;48.470;1.486;2022-10-16T12:12:49;0.20;;;0.10;;
39426;SDS011;25938;48.470;1.486;2022-10-16T12:15:47;2.75;;;0.10;;
39426;SDS011;25938;48.470;1.486;2022-10-16T12:18:07;0.25;;;0.20;;
39426;SDS011;25938;48.470;1.486;2022-10-16T12:20:53;1.38;;;0.30;;
39426;SDS011;25938;48.470;1.486;2022-10-16T12:23:45;1.02;;;0.30;;
39426;SDS011;25938;48.470;1.486;2022-10-16T12:26:12;0.50;;;0.50;;
39426;SDS011;25938;48.470;1.486;2022-10-16T12:28:38;0.55;;;0.30;;
39426;SDS011;25938;48.470;1.486;2022-10-16T12:31:06;2.22;;;0.60;;
39426;SDS011;25938;48.470;1.486;2022-10-16T12:33:41;0.17;;;0.10;;
39426;SDS011;25938;48.470;1.486;2022-10-16T12:36:29;0.35;;;0.30;;
39426;SDS011;25938;48.470;1.486;2022-10-16T12:38:57;0.40;;;0.30;;
39426;SDS011;25938;48.470;1.486;2022-10-16T12:41:28;0.70;;;0.50;;
39426;SDS011;25938;48.470;1.486;2022-10-16T12:43:55;0.55;;;0.17;;
39426;SDS011;25938;48.470;1.486;2022-10-16T12:48:48;1.05;;;0.55;;
39426;SDS011;25938;48.470;1.486;2022-10-16T12:54:02;2.03;;;0.47;;
39426;SDS011;25938;48.470;1.486;2022-10-16T13:05:32;1.40;;;1.30;;
39426;SDS011;25938;48.470;1.486;2022-10-16T13:16:49;1.90;;;1.63;;
39426;SDS011;25938;48.470;1.486;2022-10-16T13:19:28;2.85;;;1.20;;
39426;SDS011;25938;48.470;1.486;2022-10-16T13:22:12;0.93;;;0.55;;
39426;SDS011;25938;48.470;1.486;2022-10-16T13:24:48;2.30;;;1.33;;
39426;SDS011;25938;48.470;1.486;2022-10-16T13:30:12;1.92;;;1.25;;
39426;SDS011;25938;48.470;1.486;2022-10-16T13:32:44;4.00;;;2.15;;
39426;SDS011;25938;48.470;1.486;2022-10-16T13:35:29;2.55;;;1.52;;
39426;SDS011;25938;48.470;1.486;2022-10-16T13:38:04;0.38;;;0.25;;
39426;SDS011;25938;48.470;1.486;2022-10-16T13:40:48;2.50;;;1.75;;
39426;SDS011;25938;48.470;1.486;2022-10-16T13:43:17;3.72;;;3.30;;
39426;SDS011;25938;48.470;1.486;2022-10-16T13:45:52;4.07;;;2.80;;
39426;SDS011;25938;48.470;1.486;2022-10-16T13:48:19;3.00;;;2.50;;
39426;SDS011;25938;48.470;1.486;2022-10-16T13:50:44;2.15;;;1.67;;
39426;SDS011;25938;48.470;1.486;2022-10-16T13:53:13;0.57;;;0.40;;
39426;SDS011;25938;48.470;1.486;2022-10-16T13:55:39;4.25;;;2.90;;
39426;SDS011;25938;48.470;1.486;2022-10-16T13:58:11;2.55;;;2.25;;
39426;SDS011;25938;48.470;1.486;2022-10-16T14:00:38;3.40;;;2.53;;
39426;SDS011;25938;48.470;1.486;2022-10-16T14:03:05;2.05;;;1.67;;
39426;SDS011;25938;48.470;1.486;2022-10-16T14:08:10;1.70;;;1.60;;
39426;SDS011;25938;48.470;1.486;2022-10-16T14:10:36;1.70;;;1.15;;
39426;SDS011;25938;48.470;1.486;2022-10-16T14:13:05;2.00;;;1.88;;
39426;SDS011;25938;48.470;1.486;2022-10-16T14:15:32;1.33;;;1.13;;
39426;SDS011;25938;48.470;1.486;2022-10-16T14:18:00;0.43;;;0.32;;
39426;SDS011;25938;48.470;1.486;2022-10-16T14:20:27;1.35;;;0.90;;
39426;SDS011;25938;48.470;1.486;2022-10-16T14:22:59;2.05;;;1.70;;
39426;SDS011;25938;48.470;1.486;2022-10-16T14:25:29;3.15;;;2.35;;
39426;SDS011;25938;48.470;1.486;2022-10-16T14:28:18;2.72;;;1.60;;
39426;SDS011;25938;48.470;1.486;2022-10-16T14:30:53;4.53;;;1.55;;
39426;SDS011;25938;48.470;1.486;2022-10-16T14:33:22;2.95;;;2.20;;
39426;SDS011;25938;48.470;1.486;2022-10-16T14:36:06;3.00;;;1.60;;
39426;SDS011;25938;48.470;1.486;2022-10-16T14:38:38;1.23;;;1.02;;
39426;SDS011;25938;48.470;1.486;2022-10-16T14:41:06;1.17;;;1.08;;
39426;SDS011;25938;48.470;1.486;2022-10-16T14:43:33;0.60;;;0.55;;
39426;SDS011;25938;48.470;1.486;2022-10-16T14:45:59;0.50;;;0.22;;
39426;SDS011;25938;48.470;1.486;2022-10-16T14:48:27;2.03;;;1.92;;
39426;SDS011;25938;48.470;1.486;2022-10-16T14:50:53;5.32;;;2.20;;
39426;SDS011;25938;48.470;1.486;2022-10-16T14:53:20;3.50;;;1.85;;
39426;SDS011;25938;48.470;1.486;2022-10-16T14:55:45;1.40;;;1.30;;
39426;SDS011;25938;48.470;1.486;2022-10-16T14:58:21;0.55;;;0.45;;
39426;SDS011;25938;48.470;1.486;2022-10-16T15:00:48;1.90;;;1.80;;
39426;SDS011;25938;48.470;1.486;2022-10-16T15:03:14;2.97;;;1.95;;
39426;SDS011;25938;48.470;1.486;2022-10-16T15:05:40;3.20;;;1.80;;
39426;SDS011;25938;48.470;1.486;2022-10-16T15:08:06;2.08;;;1.52;;
39426;SDS011;25938;48.470;1.486;2022-10-16T15:10:32;2.85;;;2.30;;
39426;SDS011;25938;48.470;1.486;2022-10-16T15:13:03;2.88;;;2.30;;
39426;SDS011;25938;48.470;1.486;2022-10-16T15:17:58;1.30;;;0.77;;
39426;SDS011;25938;48.470;1.486;2022-10-16T15:20:33;1.83;;;1.00;;
39426;SDS011;25938;48.470;1.486;2022-10-16T15:23:00;1.92;;;1.50;;
39426;SDS011;25938;48.470;1.486;2022-10-16T15:25:35;0.95;;;0.75;;
39426;SDS011;25938;48.470;1.486;2022-10-16T15:28:08;1.92;;;0.95;;
39426;SDS011;25938;48.470;1.486;2022-10-16T15:30:35;0.38;;;0.30;;
39426;SDS011;25938;48.470;1.486;2022-10-16T15:33:02;2.70;;;2.50;;
39426;SDS011;25938;48.470;1.486;2022-10-16T15:35:28;2.00;;;1.70;;
39426;SDS011;25938;48.470;1.486;2022-10-16T15:37:54;3.30;;;1.55;;
39426;SDS011;25938;48.470;1.486;2022-10-16T15:40:20;1.92;;;1.58;;
39426;SDS011;25938;48.470;1.486;2022-10-16T15:42:46;3.20;;;2.50;;
39426;SDS011;25938;48.470;1.486;2022-10-16T15:45:12;1.85;;;1.70;;
39426;SDS011;25938;48.470;1.486;2022-10-16T15:47:38;2.20;;;2.00;;
39426;SDS011;25938;48.470;1.486;2022-10-16T15:50:06;3.60;;;2.58;;
39426;SDS011;25938;48.470;1.486;2022-10-16T15:52:32;1.05;;;0.88;;
39426;SDS011;25938;48.470;1.486;2022-10-16T15:54:58;3.45;;;3.15;;
39426;SDS011;25938;48.470;1.486;2022-10-16T15:57:24;2.30;;;2.10;;
39426;SDS011;25938;48.470;1.486;2022-10-16T15:59:50;3.22;;;2.15;;
39426;SDS011;25938;48.470;1.486;2022-10-16T16:02:15;2.40;;;2.15;;
39426;SDS011;25938;48.470;1.486;2022-10-16T16:04:41;2.05;;;1.50;;
39426;SDS011;25938;48.470;1.486;2022-10-16T16:07:07;3.40;;;1.67;;
39426;SDS011;25938;48.470;1.486;2022-10-16T16:09:34;3.75;;;2.00;;
39426;SDS011;25938;48.470;1.486;2022-10-16T16:12:00;2.72;;;2.47;;
39426;SDS011;25938;48.470;1.486;2022-10-16T16:14:26;3.42;;;2.20;;
39426;SDS011;25938;48.470;1.486;2022-10-16T16:16:55;1.77;;;1.67;;
39426;SDS011;25938;48.470;1.486;2022-10-16T16:19:21;2.50;;;2.30;;
39426;SDS011;25938;48.470;1.486;2022-10-16T16:21:47;1.98;;;1.77;;
39426;SDS011;25938;48.470;1.486;2022-10-16T16:24:14;2.08;;;1.65;;
39426;SDS011;25938;48.470;1.486;2022-10-16T16:26:39;1.67;;;1.40;;
39426;SDS011;25938;48.470;1.486;2022-10-16T16:29:09;2.47;;;1.60;;
39426;SDS011;25938;48.470;1.486;2022-10-16T16:31:38;1.85;;;1.73;;
39426;SDS011;25938;48.470;1.486;2022-10-16T16:34:04;3.10;;;2.17;;
39426;SDS011;25938;48.470;1.486;2022-10-16T16:36:30;5.00;;;4.43;;
39426;SDS011;25938;48.470;1.486;2022-10-16T16:38:56;5.57;;;3.28;;
39426;SDS011;25938;48.470;1.486;2022-10-16T16:41:28;2.60;;;2.40;;
39426;SDS011;25938;48.470;1.486;2022-10-16T16:43:55;1.98;;;1.65;;
39426;SDS011;25938;48.470;1.486;2022-10-16T16:46:25;4.07;;;2.20;;
39426;SDS011;25938;48.470;1.486;2022-10-16T16:48:51;1.70;;;1.58;;
39426;SDS011;25938;48.470;1.486;2022-10-16T16:51:20;4.05;;;1.88;;